createdAt,value
2023-03-22T00:01:17.169Z,28.40
2023-03-22T00:03:46.243Z,28.30
2023-03-22T00:06:18.197Z,26.40
2023-03-22T00:08:50.803Z,29.00
2023-03-22T00:11:24.471Z,26.50
2023-03-22T00:13:53.893Z,31.20
2023-03-22T00:16:22.653Z,26.40
2023-03-22T00:18:59.729Z,26.10
2023-03-22T00:21:29.655Z,24.40
2023-03-22T00:23:58.141Z,25.30
2023-03-22T00:26:26.511Z,31.00
2023-03-22T00:28:54.790Z,30.20
2023-03-22T00:31:23.159Z,26.70
2023-03-22T00:33:51.652Z,26.50
2023-03-22T00:36:20.087Z,24.40
2023-03-22T00:38:52.557Z,24.20
2023-03-22T00:41:22.658Z,24.20
2023-03-22T00:43:56.632Z,25.10
2023-03-22T00:46:26.246Z,22.20
2023-03-22T00:48:54.459Z,22.90
2023-03-22T00:51:24.633Z,22.50
2023-03-22T00:53:54.194Z,20.10
2023-03-22T00:56:25.649Z,21.60
2023-03-22T00:58:58.920Z,20.40
2023-03-22T01:01:32.248Z,22.20
2023-03-22T01:04:03.256Z,23.70
2023-03-22T01:06:33.616Z,22.60
2023-03-22T01:09:01.999Z,21.20
2023-03-22T01:11:33.509Z,24.10
2023-03-22T01:14:01.775Z,19.80
2023-03-22T01:16:30.498Z,24.80
2023-03-22T01:18:58.857Z,21.40
2023-03-22T01:21:27.335Z,24.60
2023-03-22T01:23:55.715Z,22.10
2023-03-22T01:26:23.979Z,25.60
2023-03-22T01:28:52.380Z,24.80
2023-03-22T01:31:21.098Z,19.80
2023-03-22T01:33:49.620Z,21.50
2023-03-22T01:36:17.873Z,19.80
2023-03-22T01:38:46.302Z,20.70
2023-03-22T01:41:16.905Z,18.20
2023-03-22T01:43:46.414Z,19.70
2023-03-22T01:46:14.808Z,20.00
2023-03-22T01:48:47.278Z,17.90
2023-03-22T01:51:23.467Z,21.10
2023-03-22T01:54:43.143Z,17.50
2023-03-22T01:58:12.979Z,20.30
2023-03-22T02:00:48.014Z,20.50
2023-03-22T02:03:42.535Z,20.40
2023-03-22T02:06:11.922Z,20.90
2023-03-22T02:08:43.153Z,19.60
2023-03-22T02:11:28.020Z,18.50
2023-03-22T02:14:06.242Z,18.00
2023-03-22T02:16:57.444Z,20.70
2023-03-22T02:19:52.239Z,17.70
2023-03-22T02:22:42.634Z,18.40
2023-03-22T02:25:45.127Z,20.20
2023-03-22T02:28:19.390Z,20.10
2023-03-22T02:30:48.511Z,20.70
2023-03-22T02:33:55.934Z,21.00
2023-03-22T02:36:31.130Z,25.60
2023-03-22T02:39:06.825Z,23.70
2023-03-22T02:41:51.387Z,22.10
2023-03-22T02:44:25.924Z,20.10
2023-03-22T02:47:05.355Z,20.20
2023-03-22T02:49:46.225Z,25.50
2023-03-22T02:52:50.705Z,28.60
2023-03-22T02:55:45.442Z,24.20
2023-03-22T02:58:26.941Z,25.40
2023-03-22T03:00:58.207Z,24.70
2023-03-22T03:03:29.510Z,32.60
2023-03-22T03:06:00.900Z,31.50
2023-03-22T03:08:29.459Z,25.70
2023-03-22T03:11:00.419Z,19.90
2023-03-22T03:13:30.218Z,20.10
2023-03-22T03:15:59.758Z,20.40
2023-03-22T03:18:46.254Z,25.30
2023-03-22T03:21:30.487Z,20.20
2023-03-22T03:24:17.199Z,23.90
2023-03-22T03:26:54.394Z,25.30
2023-03-22T03:29:47.541Z,25.80
2023-03-22T03:32:26.491Z,22.30
2023-03-22T03:35:01.403Z,21.60
2023-03-22T03:37:35.625Z,21.70
2023-03-22T03:40:14.804Z,21.40
2023-03-22T03:42:44.875Z,21.00
2023-03-22T03:45:13.978Z,26.80
2023-03-22T03:47:43.833Z,26.40
2023-03-22T03:50:12.469Z,23.90
2023-03-22T03:52:41.082Z,29.50
2023-03-22T03:55:09.822Z,30.10
2023-03-22T03:57:40.652Z,32.20
2023-03-22T04:00:10.091Z,32.20
2023-03-22T04:02:57.414Z,25.20
2023-03-22T04:05:45.973Z,69.40
2023-03-22T04:08:15.718Z,37.00
2023-03-22T04:10:44.296Z,22.00
2023-03-22T04:13:12.888Z,22.80
2023-03-22T04:15:42.731Z,28.50
2023-03-22T04:18:19.828Z,29.00
2023-03-22T04:20:49.765Z,35.30
2023-03-22T04:23:18.272Z,28.00
2023-03-22T04:25:50.377Z,24.80
2023-03-22T04:28:26.194Z,28.60
2023-03-22T04:37:48.459Z,26.20
2023-03-22T04:40:20.196Z,22.40
2023-03-22T04:43:03.566Z,23.40
2023-03-22T04:45:43.927Z,24.30
2023-03-22T04:48:11.759Z,23.40
2023-03-22T04:50:42.450Z,23.30
2023-03-22T04:53:11.935Z,24.30
2023-03-22T04:55:38.989Z,24.90
2023-03-22T04:58:06.323Z,26.50
2023-03-22T05:00:33.474Z,24.50
2023-03-22T05:03:01.292Z,23.60
2023-03-22T05:05:33.730Z,25.30
2023-03-22T05:08:01.283Z,23.10
2023-03-22T05:10:30.079Z,29.30
2023-03-22T05:12:57.937Z,23.40
2023-03-22T05:15:31.949Z,23.20
2023-03-22T05:17:59.405Z,23.00
2023-03-22T05:20:26.970Z,22.10
2023-03-22T05:23:04.869Z,22.10
2023-03-22T05:25:32.258Z,22.70
2023-03-22T05:28:03.286Z,24.00
2023-03-22T05:30:37.307Z,24.30
2023-03-22T05:33:41.076Z,20.50
2023-03-22T05:36:10.809Z,20.80
2023-03-22T05:38:46.019Z,17.50
2023-03-22T05:41:13.297Z,17.00
2023-03-22T05:43:40.514Z,15.90
2023-03-22T05:46:11.605Z,17.60
2023-03-22T05:49:03.242Z,16.10
2023-03-22T05:51:31.605Z,20.40
2023-03-22T05:53:58.872Z,15.80
2023-03-22T05:56:32.259Z,16.20
2023-03-22T05:59:05.028Z,16.90
2023-03-22T06:01:32.940Z,18.10
2023-03-22T06:04:13.580Z,16.60
2023-03-22T06:07:07.252Z,15.50
2023-03-22T06:09:49.800Z,18.70
2023-03-22T06:12:32.346Z,16.80
2023-03-22T06:15:04.755Z,17.30
2023-03-22T06:17:42.673Z,16.90
2023-03-22T06:20:17.498Z,17.00
2023-03-22T06:22:51.100Z,16.80
2023-03-22T06:25:18.254Z,17.70
2023-03-22T06:27:47.544Z,14.40
2023-03-22T06:30:15.275Z,16.00
2023-03-22T06:33:05.487Z,16.50
2023-03-22T06:35:35.506Z,15.20
2023-03-22T06:38:03.182Z,17.00
2023-03-22T06:40:35.426Z,15.60
2023-03-22T06:43:07.200Z,13.20
2023-03-22T06:45:40.095Z,14.40
2023-03-22T06:48:07.632Z,12.70
2023-03-22T06:50:44.537Z,12.40
2023-03-22T06:53:15.380Z,13.70
2023-03-22T06:55:43.748Z,17.00
2023-03-22T06:58:14.968Z,13.80
2023-03-22T07:00:42.340Z,13.20
2023-03-22T07:03:09.915Z,11.70
2023-03-22T07:05:50.478Z,14.20
2023-03-22T07:08:17.635Z,12.80
2023-03-22T07:10:50.500Z,11.70
2023-03-22T07:13:20.947Z,14.50
2023-03-22T07:15:48.693Z,14.60
2023-03-22T07:18:41.268Z,16.90
2023-03-22T07:21:09.291Z,14.70
2023-03-22T07:23:37.637Z,11.50
2023-03-22T07:26:09.271Z,12.40
2023-03-22T07:28:41.334Z,14.10
2023-03-22T07:31:11.045Z,13.80
2023-03-22T07:33:46.190Z,10.50
2023-03-22T07:36:16.405Z,11.20
2023-03-22T07:38:45.415Z,9.80
2023-03-22T07:41:16.017Z,10.90
2023-03-22T07:44:17.007Z,9.40
2023-03-22T07:47:40.492Z,10.00
2023-03-22T07:50:30.444Z,9.50
2023-03-22T07:52:59.951Z,8.50
2023-03-22T07:55:27.335Z,8.60
2023-03-22T07:57:54.456Z,8.30
2023-03-22T08:00:23.063Z,6.90
2023-03-22T08:02:56.070Z,11.40
2023-03-22T08:05:52.678Z,9.00
2023-03-22T08:08:20.552Z,8.20
2023-03-22T08:10:53.330Z,10.30
2023-03-22T08:13:21.409Z,7.60
2023-03-22T08:15:48.756Z,9.00
2023-03-22T08:18:19.084Z,7.90
2023-03-22T08:20:46.153Z,7.10
2023-03-22T08:23:17.802Z,8.40
2023-03-22T08:26:03.377Z,8.10
2023-03-22T08:28:32.122Z,11.30
2023-03-22T08:30:59.523Z,7.90
2023-03-22T08:33:27.744Z,7.50
2023-03-22T08:36:07.267Z,8.40
2023-03-22T08:38:35.648Z,9.90
2023-03-22T08:41:03.178Z,7.70
2023-03-22T08:43:30.535Z,7.00
2023-03-22T08:45:58.233Z,8.20
2023-03-22T08:48:28.627Z,9.90
2023-03-22T08:54:04.195Z,7.80
2023-03-22T08:59:43.848Z,10.00
2023-03-22T09:02:32.022Z,7.80
2023-03-22T09:04:59.077Z,9.60
2023-03-22T09:07:32.240Z,7.90
2023-03-22T09:10:08.827Z,6.70
2023-03-22T09:12:37.810Z,6.70
2023-03-22T09:15:06.921Z,5.90
2023-03-22T09:17:34.881Z,7.40
2023-03-22T09:20:12.491Z,6.90
2023-03-22T09:22:42.168Z,6.70
2023-03-22T09:25:12.155Z,6.80
2023-03-22T09:27:41.686Z,6.20
2023-03-22T09:30:13.911Z,9.70
2023-03-22T09:32:42.157Z,11.60
2023-03-22T09:35:11.053Z,8.10
2023-03-22T09:37:52.847Z,8.10
2023-03-22T09:40:21.428Z,7.60
2023-03-22T09:42:50.012Z,9.30
2023-03-22T09:45:30.219Z,15.00
2023-03-22T09:47:59.849Z,11.00
2023-03-22T09:50:31.261Z,10.90
2023-03-22T09:52:59.284Z,9.80
2023-03-22T09:55:37.457Z,8.20
2023-03-22T09:58:07.993Z,7.10
2023-03-22T10:00:35.018Z,6.50
2023-03-22T10:03:33.107Z,6.40
2023-03-22T10:06:02.982Z,6.30
2023-03-22T10:08:49.718Z,5.70
2023-03-22T10:11:20.883Z,5.80
2023-03-22T10:13:57.129Z,6.60
2023-03-22T10:16:33.006Z,5.90
2023-03-22T10:19:22.745Z,5.90
2023-03-22T10:21:50.137Z,6.40
2023-03-22T10:24:19.928Z,7.00
2023-03-22T10:26:47.134Z,5.40
2023-03-22T10:29:38.083Z,5.10
2023-03-22T10:32:25.710Z,4.30
2023-03-22T10:34:52.761Z,4.50
2023-03-22T10:37:24.331Z,4.90
2023-03-22T10:39:55.251Z,6.10
2023-03-22T10:42:27.629Z,5.30
2023-03-22T10:44:55.833Z,5.00
2023-03-22T10:47:35.759Z,4.30
2023-03-22T10:50:05.471Z,4.70
2023-03-22T10:52:36.504Z,4.40
2023-03-22T10:55:04.732Z,5.50
2023-03-22T10:57:31.747Z,5.00
2023-03-22T10:59:59.911Z,4.80
2023-03-22T11:02:31.197Z,4.60
2023-03-22T11:05:00.818Z,4.70
2023-03-22T11:07:28.132Z,5.10
2023-03-22T11:10:10.374Z,5.50
2023-03-22T11:12:40.527Z,5.20
2023-03-22T11:15:29.519Z,5.90
2023-03-22T11:18:29.843Z,4.20
2023-03-22T11:20:59.218Z,6.50
2023-03-22T11:23:28.139Z,4.10
2023-03-22T11:25:56.009Z,4.20
2023-03-22T11:28:36.055Z,5.50
2023-03-22T11:31:14.829Z,3.80
2023-03-22T11:33:59.864Z,5.30
2023-03-22T11:36:28.343Z,4.10
2023-03-22T11:39:05.641Z,3.70
2023-03-22T11:41:36.698Z,4.00
2023-03-22T11:44:12.231Z,6.30
2023-03-22T11:46:39.315Z,6.60
2023-03-22T11:49:08.612Z,5.00
2023-03-22T11:51:39.715Z,3.70
2023-03-22T11:54:32.061Z,4.70
2023-03-22T11:57:01.668Z,3.90
2023-03-22T11:59:51.171Z,3.80
2023-03-22T12:02:35.589Z,5.10
2023-03-22T12:05:08.345Z,4.80
2023-03-22T12:07:35.855Z,6.50
2023-03-22T12:10:20.712Z,6.10
2023-03-22T12:12:53.878Z,3.50
2023-03-22T12:15:25.761Z,4.00
2023-03-22T12:18:10.069Z,3.40
2023-03-22T12:21:11.164Z,3.50
2023-03-22T12:23:38.430Z,3.30
2023-03-22T12:26:11.508Z,5.70
2023-03-22T12:28:56.588Z,5.70
2023-03-22T12:31:27.970Z,3.50
2023-03-22T12:33:56.028Z,4.40
2023-03-22T12:36:32.958Z,2.60
2023-03-22T12:39:07.071Z,2.60
2023-03-22T12:41:39.150Z,3.80
2023-03-22T12:44:18.608Z,3.10
2023-03-22T12:46:54.167Z,3.00
2023-03-22T12:49:27.716Z,2.70
2023-03-22T12:51:55.986Z,2.60
2023-03-22T12:54:23.696Z,6.00
2023-03-22T12:56:50.643Z,6.40
2023-03-22T12:59:20.043Z,3.00
2023-03-22T13:01:59.212Z,3.00
2023-03-22T13:04:30.740Z,3.20
2023-03-22T13:07:13.556Z,3.30
2023-03-22T13:09:48.308Z,2.40
2023-03-22T13:12:16.714Z,2.40
2023-03-22T13:15:15.881Z,4.40
2023-03-22T13:17:44.514Z,2.40
2023-03-22T13:20:11.712Z,3.20
2023-03-22T13:22:41.101Z,3.40
2023-03-22T13:25:14.304Z,2.70
2023-03-22T13:27:45.605Z,3.90
2023-03-22T13:30:32.993Z,3.30
2023-03-22T13:33:10.017Z,2.60
2023-03-22T13:35:58.923Z,2.60
2023-03-22T13:38:42.750Z,5.10
2023-03-22T13:41:30.219Z,2.60
2023-03-22T13:43:59.214Z,2.50
2023-03-22T13:46:28.529Z,2.90
2023-03-22T13:48:58.981Z,3.90
2023-03-22T13:51:30.687Z,3.20
2023-03-22T13:54:12.787Z,3.00
2023-03-22T13:56:41.467Z,6.10
2023-03-22T13:59:12.936Z,4.80
2023-03-22T14:01:46.951Z,3.80
2023-03-22T14:04:22.072Z,3.70
2023-03-22T14:06:59.238Z,3.60
2023-03-22T14:09:31.058Z,2.40
2023-03-22T14:12:21.427Z,2.50
2023-03-22T14:16:46.143Z,2.10
2023-03-22T14:19:22.457Z,2.40
